sensor_id;sensor_type;location;lat;lon;timestamp;P1;durP1;ratioP1;P2;durP2;ratioP2
54705;SDS011;40603;48.774;8.916;2024-03-29T00:02:22;2.47;;;0.80;;
54705;SDS011;40603;48.774;8.916;2024-03-29T00:04:47;3.58;;;0.73;;
54705;SDS011;40603;48.774;8.916;2024-03-29T00:07:13;3.05;;;0.95;;
54705;SDS011;40603;48.774;8.916;2024-03-29T00:09:38;2.80;;;1.00;;
54705;SDS011;40603;48.774;8.916;2024-03-29T00:12:03;2.90;;;1.55;;
54705;SDS011;40603;48.774;8.916;2024-03-29T00:14:29;1.25;;;0.75;;
54705;SDS011;40603;48.774;8.916;2024-03-29T00:16:55;1.70;;;0.90;;
54705;SDS011;40603;48.774;8.916;2024-03-29T00:19:20;1.40;;;0.80;;
54705;SDS011;40603;48.774;8.916;2024-03-29T00:21:45;3.40;;;0.70;;
54705;SDS011;40603;48.774;8.916;2024-03-29T00:24:11;4.45;;;0.95;;
54705;SDS011;40603;48.774;8.916;2024-03-29T00:26:37;4.38;;;0.75;;
54705;SDS011;40603;48.774;8.916;2024-03-29T00:29:02;1.75;;;0.93;;
54705;SDS011;40603;48.774;8.916;2024-03-29T00:31:28;3.53;;;1.10;;
54705;SDS011;40603;48.774;8.916;2024-03-29T00:33:53;4.05;;;1.05;;
54705;SDS011;40603;48.774;8.916;2024-03-29T00:36:18;1.55;;;0.95;;
54705;SDS011;40603;48.774;8.916;2024-03-29T00:38:44;2.35;;;0.65;;
54705;SDS011;40603;48.774;8.916;2024-03-29T00:41:09;1.45;;;0.70;;
54705;SDS011;40603;48.774;8.916;2024-03-29T00:43:34;1.65;;;0.88;;
54705;SDS011;40603;48.774;8.916;2024-03-29T00:45:59;3.50;;;0.77;;
54705;SDS011;40603;48.774;8.916;2024-03-29T00:48:25;2.65;;;1.05;;
54705;SDS011;40603;48.774;8.916;2024-03-29T00:50:50;1.77;;;1.00;;
54705;SDS011;40603;48.774;8.916;2024-03-29T00:53:15;2.33;;;0.93;;
54705;SDS011;40603;48.774;8.916;2024-03-29T00:55:41;1.65;;;0.68;;
54705;SDS011;40603;48.774;8.916;2024-03-29T00:58:06;1.98;;;0.95;;
54705;SDS011;40603;48.774;8.916;2024-03-29T01:00:32;2.78;;;1.20;;
54705;SDS011;40603;48.774;8.916;2024-03-29T01:02:57;2.00;;;1.00;;
54705;SDS011;40603;48.774;8.916;2024-03-29T01:05:22;2.28;;;0.95;;
54705;SDS011;40603;48.774;8.916;2024-03-29T01:07:48;3.03;;;1.25;;
54705;SDS011;40603;48.774;8.916;2024-03-29T01:10:13;2.28;;;1.20;;
54705;SDS011;40603;48.774;8.916;2024-03-29T01:12:38;2.17;;;1.00;;
54705;SDS011;40603;48.774;8.916;2024-03-29T01:15:04;2.50;;;1.15;;
54705;SDS011;40603;48.774;8.916;2024-03-29T01:17:30;3.28;;;1.20;;
54705;SDS011;40603;48.774;8.916;2024-03-29T01:19:55;1.88;;;1.20;;
54705;SDS011;40603;48.774;8.916;2024-03-29T01:22:21;2.25;;;0.90;;
54705;SDS011;40603;48.774;8.916;2024-03-29T01:24:46;1.58;;;0.90;;
54705;SDS011;40603;48.774;8.916;2024-03-29T01:27:11;5.70;;;1.08;;
54705;SDS011;40603;48.774;8.916;2024-03-29T01:29:37;2.45;;;1.00;;
54705;SDS011;40603;48.774;8.916;2024-03-29T01:32:02;1.05;;;0.80;;
54705;SDS011;40603;48.774;8.916;2024-03-29T01:34:28;1.98;;;1.20;;
54705;SDS011;40603;48.774;8.916;2024-03-29T01:36:53;4.20;;;1.00;;
54705;SDS011;40603;48.774;8.916;2024-03-29T01:39:18;3.00;;;1.15;;
54705;SDS011;40603;48.774;8.916;2024-03-29T01:41:46;2.45;;;1.40;;
54705;SDS011;40603;48.774;8.916;2024-03-29T01:44:11;1.63;;;1.10;;
54705;SDS011;40603;48.774;8.916;2024-03-29T01:46:36;2.15;;;0.93;;
54705;SDS011;40603;48.774;8.916;2024-03-29T01:49:02;1.27;;;0.85;;
54705;SDS011;40603;48.774;8.916;2024-03-29T01:51:28;2.60;;;0.88;;
54705;SDS011;40603;48.774;8.916;2024-03-29T01:53:54;3.17;;;0.93;;
54705;SDS011;40603;48.774;8.916;2024-03-29T01:56:20;2.30;;;1.00;;
54705;SDS011;40603;48.774;8.916;2024-03-29T01:58:46;2.10;;;1.10;;
54705;SDS011;40603;48.774;8.916;2024-03-29T02:01:13;2.90;;;1.10;;
54705;SDS011;40603;48.774;8.916;2024-03-29T02:03:39;2.85;;;1.27;;
54705;SDS011;40603;48.774;8.916;2024-03-29T02:06:06;1.88;;;1.10;;
54705;SDS011;40603;48.774;8.916;2024-03-29T02:08:32;2.38;;;1.00;;
54705;SDS011;40603;48.774;8.916;2024-03-29T02:10:58;2.85;;;0.95;;
54705;SDS011;40603;48.774;8.916;2024-03-29T02:13:24;1.83;;;1.10;;
54705;SDS011;40603;48.774;8.916;2024-03-29T02:15:50;4.13;;;1.13;;
54705;SDS011;40603;48.774;8.916;2024-03-29T02:18:15;3.63;;;0.98;;
54705;SDS011;40603;48.774;8.916;2024-03-29T02:20:40;2.88;;;0.82;;
54705;SDS011;40603;48.774;8.916;2024-03-29T02:23:06;3.30;;;1.02;;
54705;SDS011;40603;48.774;8.916;2024-03-29T02:25:34;1.85;;;0.93;;
54705;SDS011;40603;48.774;8.916;2024-03-29T02:28:01;1.05;;;0.80;;
54705;SDS011;40603;48.774;8.916;2024-03-29T02:30:27;1.77;;;1.10;;
54705;SDS011;40603;48.774;8.916;2024-03-29T02:32:53;3.03;;;1.00;;
54705;SDS011;40603;48.774;8.916;2024-03-29T02:35:19;1.05;;;0.70;;
54705;SDS011;40603;48.774;8.916;2024-03-29T02:37:44;1.90;;;0.98;;
54705;SDS011;40603;48.774;8.916;2024-03-29T02:40:10;2.15;;;0.75;;
54705;SDS011;40603;48.774;8.916;2024-03-29T02:42:35;3.17;;;1.33;;
54705;SDS011;40603;48.774;8.916;2024-03-29T02:45:01;1.42;;;0.90;;
54705;SDS011;40603;48.774;8.916;2024-03-29T02:47:27;3.38;;;1.05;;
54705;SDS011;40603;48.774;8.916;2024-03-29T02:49:52;1.45;;;1.00;;
54705;SDS011;40603;48.774;8.916;2024-03-29T02:52:18;1.30;;;0.80;;
54705;SDS011;40603;48.774;8.916;2024-03-29T02:54:43;1.63;;;1.00;;
54705;SDS011;40603;48.774;8.916;2024-03-29T02:57:08;1.98;;;0.75;;
54705;SDS011;40603;48.774;8.916;2024-03-29T02:59:34;1.50;;;0.80;;
54705;SDS011;40603;48.774;8.916;2024-03-29T03:01:59;1.52;;;0.88;;
54705;SDS011;40603;48.774;8.916;2024-03-29T03:04:24;2.72;;;1.13;;
54705;SDS011;40603;48.774;8.916;2024-03-29T03:06:50;7.45;;;1.17;;
54705;SDS011;40603;48.774;8.916;2024-03-29T03:09:15;4.03;;;0.95;;
54705;SDS011;40603;48.774;8.916;2024-03-29T03:11:59;3.78;;;1.10;;
54705;SDS011;40603;48.774;8.916;2024-03-29T03:14:24;0.95;;;0.80;;
54705;SDS011;40603;48.774;8.916;2024-03-29T03:16:50;2.47;;;0.82;;
54705;SDS011;40603;48.774;8.916;2024-03-29T03:19:15;1.92;;;0.95;;
54705;SDS011;40603;48.774;8.916;2024-03-29T03:21:40;2.75;;;1.20;;
54705;SDS011;40603;48.774;8.916;2024-03-29T03:24:06;2.70;;;1.05;;
54705;SDS011;40603;48.774;8.916;2024-03-29T03:26:31;2.05;;;0.90;;
54705;SDS011;40603;48.774;8.916;2024-03-29T03:28:56;2.33;;;0.88;;
54705;SDS011;40603;48.774;8.916;2024-03-29T03:31:22;1.00;;;0.82;;
54705;SDS011;40603;48.774;8.916;2024-03-29T03:33:47;1.90;;;0.90;;
54705;SDS011;40603;48.774;8.916;2024-03-29T03:36:12;3.03;;;1.25;;
54705;SDS011;40603;48.774;8.916;2024-03-29T03:38:37;2.05;;;1.02;;
54705;SDS011;40603;48.774;8.916;2024-03-29T03:41:04;3.28;;;0.90;;
54705;SDS011;40603;48.774;8.916;2024-03-29T03:43:30;2.88;;;1.10;;
54705;SDS011;40603;48.774;8.916;2024-03-29T03:45:59;1.55;;;1.00;;
54705;SDS011;40603;48.774;8.916;2024-03-29T03:48:25;1.23;;;0.70;;
54705;SDS011;40603;48.774;8.916;2024-03-29T03:50:50;3.50;;;0.82;;
54705;SDS011;40603;48.774;8.916;2024-03-29T03:53:15;2.30;;;0.82;;
54705;SDS011;40603;48.774;8.916;2024-03-29T03:55:41;1.48;;;1.25;;
54705;SDS011;40603;48.774;8.916;2024-03-29T03:58:06;1.35;;;1.13;;
54705;SDS011;40603;48.774;8.916;2024-03-29T04:00:32;1.48;;;0.80;;
54705;SDS011;40603;48.774;8.916;2024-03-29T04:02:58;1.63;;;1.00;;
54705;SDS011;40603;48.774;8.916;2024-03-29T04:05:23;1.10;;;0.70;;
54705;SDS011;40603;48.774;8.916;2024-03-29T04:07:49;2.78;;;0.75;;
54705;SDS011;40603;48.774;8.916;2024-03-29T04:10:15;1.58;;;0.88;;
54705;SDS011;40603;48.774;8.916;2024-03-29T04:12:40;5.90;;;1.10;;
54705;SDS011;40603;48.774;8.916;2024-03-29T04:15:05;2.00;;;0.90;;
54705;SDS011;40603;48.774;8.916;2024-03-29T04:17:31;1.70;;;1.02;;
54705;SDS011;40603;48.774;8.916;2024-03-29T04:19:57;2.38;;;0.90;;
54705;SDS011;40603;48.774;8.916;2024-03-29T04:22:29;4.32;;;1.10;;
54705;SDS011;40603;48.774;8.916;2024-03-29T04:24:55;1.63;;;0.93;;
54705;SDS011;40603;48.774;8.916;2024-03-29T04:27:20;2.63;;;1.48;;
54705;SDS011;40603;48.774;8.916;2024-03-29T04:29:45;2.42;;;0.93;;
54705;SDS011;40603;48.774;8.916;2024-03-29T04:32:11;2.38;;;1.20;;
54705;SDS011;40603;48.774;8.916;2024-03-29T04:34:36;1.83;;;1.20;;
54705;SDS011;40603;48.774;8.916;2024-03-29T04:37:01;3.20;;;1.70;;
54705;SDS011;40603;48.774;8.916;2024-03-29T04:39:27;1.15;;;0.88;;
54705;SDS011;40603;48.774;8.916;2024-03-29T04:41:52;1.25;;;0.90;;
54705;SDS011;40603;48.774;8.916;2024-03-29T04:44:24;2.10;;;1.08;;
54705;SDS011;40603;48.774;8.916;2024-03-29T04:46:50;1.70;;;0.85;;
54705;SDS011;40603;48.774;8.916;2024-03-29T04:49:15;3.60;;;0.80;;
54705;SDS011;40603;48.774;8.916;2024-03-29T04:51:47;1.90;;;0.90;;
54705;SDS011;40603;48.774;8.916;2024-03-29T04:54:13;2.00;;;1.10;;
54705;SDS011;40603;48.774;8.916;2024-03-29T04:56:38;1.45;;;0.93;;
54705;SDS011;40603;48.774;8.916;2024-03-29T04:59:03;2.28;;;1.20;;
54705;SDS011;40603;48.774;8.916;2024-03-29T05:01:29;2.30;;;0.93;;
54705;SDS011;40603;48.774;8.916;2024-03-29T05:03:54;3.03;;;1.00;;
54705;SDS011;40603;48.774;8.916;2024-03-29T05:06:20;1.80;;;1.20;;
54705;SDS011;40603;48.774;8.916;2024-03-29T05:08:45;3.00;;;1.35;;
54705;SDS011;40603;48.774;8.916;2024-03-29T05:11:10;3.75;;;1.25;;
54705;SDS011;40603;48.774;8.916;2024-03-29T05:13:39;1.80;;;0.90;;
54705;SDS011;40603;48.774;8.916;2024-03-29T05:16:05;3.50;;;0.90;;
54705;SDS011;40603;48.774;8.916;2024-03-29T05:18:30;2.53;;;1.20;;
54705;SDS011;40603;48.774;8.916;2024-03-29T05:20:55;1.70;;;0.82;;
54705;SDS011;40603;48.774;8.916;2024-03-29T05:23:21;2.67;;;1.10;;
54705;SDS011;40603;48.774;8.916;2024-03-29T05:25:46;1.65;;;0.98;;
54705;SDS011;40603;48.774;8.916;2024-03-29T05:28:13;1.00;;;0.80;;
54705;SDS011;40603;48.774;8.916;2024-03-29T05:30:39;2.50;;;0.90;;
54705;SDS011;40603;48.774;8.916;2024-03-29T05:33:04;2.58;;;0.90;;
54705;SDS011;40603;48.774;8.916;2024-03-29T05:35:29;1.63;;;0.70;;
54705;SDS011;40603;48.774;8.916;2024-03-29T05:37:55;1.40;;;0.68;;
54705;SDS011;40603;48.774;8.916;2024-03-29T05:40:20;2.70;;;0.90;;
54705;SDS011;40603;48.774;8.916;2024-03-29T05:42:50;1.88;;;0.90;;
54705;SDS011;40603;48.774;8.916;2024-03-29T05:45:28;1.88;;;0.93;;
54705;SDS011;40603;48.774;8.916;2024-03-29T05:47:55;1.65;;;0.73;;
54705;SDS011;40603;48.774;8.916;2024-03-29T05:50:22;2.25;;;0.90;;
54705;SDS011;40603;48.774;8.916;2024-03-29T05:52:48;1.30;;;0.65;;
54705;SDS011;40603;48.774;8.916;2024-03-29T05:55:14;1.48;;;0.85;;
54705;SDS011;40603;48.774;8.916;2024-03-29T05:57:39;2.33;;;0.90;;
54705;SDS011;40603;48.774;8.916;2024-03-29T06:00:06;0.85;;;0.70;;
54705;SDS011;40603;48.774;8.916;2024-03-29T06:02:33;0.73;;;0.68;;
54705;SDS011;40603;48.774;8.916;2024-03-29T06:04:59;2.10;;;0.90;;
54705;SDS011;40603;48.774;8.916;2024-03-29T06:07:24;1.85;;;0.90;;
54705;SDS011;40603;48.774;8.916;2024-03-29T06:09:49;1.27;;;0.70;;
54705;SDS011;40603;48.774;8.916;2024-03-29T06:12:15;2.25;;;0.70;;
54705;SDS011;40603;48.774;8.916;2024-03-29T06:14:40;1.15;;;0.70;;
54705;SDS011;40603;48.774;8.916;2024-03-29T06:17:24;4.32;;;0.80;;
54705;SDS011;40603;48.774;8.916;2024-03-29T06:19:53;1.58;;;0.70;;
54705;SDS011;40603;48.774;8.916;2024-03-29T06:22:25;0.50;;;0.50;;
54705;SDS011;40603;48.774;8.916;2024-03-29T06:24:54;1.00;;;0.70;;
54705;SDS011;40603;48.774;8.916;2024-03-29T06:27:23;1.35;;;0.70;;
54705;SDS011;40603;48.774;8.916;2024-03-29T06:29:49;3.67;;;0.80;;
54705;SDS011;40603;48.774;8.916;2024-03-29T06:32:14;2.17;;;0.75;;
54705;SDS011;40603;48.774;8.916;2024-03-29T06:34:41;2.53;;;0.88;;
54705;SDS011;40603;48.774;8.916;2024-03-29T06:37:06;3.60;;;0.80;;
54705;SDS011;40603;48.774;8.916;2024-03-29T06:39:32;1.92;;;0.98;;
54705;SDS011;40603;48.774;8.916;2024-03-29T06:41:58;1.55;;;0.88;;
54705;SDS011;40603;48.774;8.916;2024-03-29T06:44:23;0.80;;;0.60;;
54705;SDS011;40603;48.774;8.916;2024-03-29T06:46:48;0.68;;;0.50;;
54705;SDS011;40603;48.774;8.916;2024-03-29T06:49:14;1.23;;;0.60;;
54705;SDS011;40603;48.774;8.916;2024-03-29T06:51:40;1.13;;;0.80;;
54705;SDS011;40603;48.774;8.916;2024-03-29T06:54:05;1.08;;;0.75;;
54705;SDS011;40603;48.774;8.916;2024-03-29T06:56:31;1.45;;;1.20;;
54705;SDS011;40603;48.774;8.916;2024-03-29T06:58:56;1.13;;;1.00;;
54705;SDS011;40603;48.774;8.916;2024-03-29T07:01:21;1.30;;;0.80;;
54705;SDS011;40603;48.774;8.916;2024-03-29T07:03:47;0.95;;;0.82;;
54705;SDS011;40603;48.774;8.916;2024-03-29T07:06:12;3.35;;;0.82;;
54705;SDS011;40603;48.774;8.916;2024-03-29T07:08:37;0.55;;;0.50;;
54705;SDS011;40603;48.774;8.916;2024-03-29T07:11:03;4.22;;;0.90;;
54705;SDS011;40603;48.774;8.916;2024-03-29T07:13:28;1.17;;;0.90;;
54705;SDS011;40603;48.774;8.916;2024-03-29T07:16:00;3.55;;;1.40;;
54705;SDS011;40603;48.774;8.916;2024-03-29T07:18:26;1.92;;;0.90;;
54705;SDS011;40603;48.774;8.916;2024-03-29T07:20:51;1.20;;;1.00;;
54705;SDS011;40603;48.774;8.916;2024-03-29T07:23:17;2.50;;;0.80;;
54705;SDS011;40603;48.774;8.916;2024-03-29T07:25:57;2.25;;;1.10;;
54705;SDS011;40603;48.774;8.916;2024-03-29T07:28:23;4.83;;;1.23;;
54705;SDS011;40603;48.774;8.916;2024-03-29T07:30:48;4.78;;;1.35;;
54705;SDS011;40603;48.774;8.916;2024-03-29T07:33:15;2.53;;;0.98;;
54705;SDS011;40603;48.774;8.916;2024-03-29T07:35:40;8.02;;;1.98;;
54705;SDS011;40603;48.774;8.916;2024-03-29T07:38:06;4.25;;;1.55;;
54705;SDS011;40603;48.774;8.916;2024-03-29T07:40:31;3.38;;;1.50;;
54705;SDS011;40603;48.774;8.916;2024-03-29T07:42:57;3.88;;;1.35;;
54705;SDS011;40603;48.774;8.916;2024-03-29T07:45:22;1.95;;;1.02;;
54705;SDS011;40603;48.774;8.916;2024-03-29T07:47:48;3.17;;;1.20;;
54705;SDS011;40603;48.774;8.916;2024-03-29T07:50:17;4.27;;;1.27;;
54705;SDS011;40603;48.774;8.916;2024-03-29T07:52:44;2.80;;;1.38;;
54705;SDS011;40603;48.774;8.916;2024-03-29T07:55:10;4.75;;;1.20;;
54705;SDS011;40603;48.774;8.916;2024-03-29T07:57:35;6.97;;;1.50;;
54705;SDS011;40603;48.774;8.916;2024-03-29T08:00:00;3.72;;;1.27;;
54705;SDS011;40603;48.774;8.916;2024-03-29T08:02:26;1.83;;;1.00;;
54705;SDS011;40603;48.774;8.916;2024-03-29T08:04:54;2.25;;;0.80;;
54705;SDS011;40603;48.774;8.916;2024-03-29T08:07:19;3.65;;;1.05;;
54705;SDS011;40603;48.774;8.916;2024-03-29T08:09:45;1.63;;;1.00;;
54705;SDS011;40603;48.774;8.916;2024-03-29T08:12:10;2.78;;;1.08;;
54705;SDS011;40603;48.774;8.916;2024-03-29T08:14:35;3.58;;;0.93;;
54705;SDS011;40603;48.774;8.916;2024-03-29T08:17:01;1.05;;;0.95;;
54705;SDS011;40603;48.774;8.916;2024-03-29T08:19:29;3.10;;;1.08;;
54705;SDS011;40603;48.774;8.916;2024-03-29T08:21:55;2.47;;;0.80;;
54705;SDS011;40603;48.774;8.916;2024-03-29T08:24:20;2.00;;;0.80;;
54705;SDS011;40603;48.774;8.916;2024-03-29T08:26:45;1.33;;;0.90;;
54705;SDS011;40603;48.774;8.916;2024-03-29T08:29:10;1.80;;;0.93;;
54705;SDS011;40603;48.774;8.916;2024-03-29T08:31:36;1.95;;;0.77;;
54705;SDS011;40603;48.774;8.916;2024-03-29T08:34:01;3.33;;;0.65;;
54705;SDS011;40603;48.774;8.916;2024-03-29T08:36:26;1.50;;;1.02;;
54705;SDS011;40603;48.774;8.916;2024-03-29T08:38:52;2.20;;;0.95;;
54705;SDS011;40603;48.774;8.916;2024-03-29T08:41:17;1.40;;;0.63;;
54705;SDS011;40603;48.774;8.916;2024-03-29T08:43:42;3.70;;;1.05;;
54705;SDS011;40603;48.774;8.916;2024-03-29T08:46:08;1.92;;;0.95;;
54705;SDS011;40603;48.774;8.916;2024-03-29T08:48:34;1.25;;;1.10;;
54705;SDS011;40603;48.774;8.916;2024-03-29T08:51:01;0.98;;;0.80;;
54705;SDS011;40603;48.774;8.916;2024-03-29T08:53:26;1.38;;;0.90;;
54705;SDS011;40603;48.774;8.916;2024-03-29T08:55:52;2.45;;;0.63;;
54705;SDS011;40603;48.774;8.916;2024-03-29T08:58:17;2.58;;;1.02;;
54705;SDS011;40603;48.774;8.916;2024-03-29T09:00:51;0.90;;;0.70;;
54705;SDS011;40603;48.774;8.916;2024-03-29T09:03:18;0.98;;;0.80;;
54705;SDS011;40603;48.774;8.916;2024-03-29T09:05:43;1.40;;;0.90;;
54705;SDS011;40603;48.774;8.916;2024-03-29T09:08:08;1.70;;;0.70;;
54705;SDS011;40603;48.774;8.916;2024-03-29T09:10:34;1.48;;;0.80;;
54705;SDS011;40603;48.774;8.916;2024-03-29T09:12:59;0.98;;;0.90;;
54705;SDS011;40603;48.774;8.916;2024-03-29T09:15:24;3.90;;;1.10;;
54705;SDS011;40603;48.774;8.916;2024-03-29T09:17:49;1.42;;;0.95;;
54705;SDS011;40603;48.774;8.916;2024-03-29T09:20:15;3.83;;;1.45;;
54705;SDS011;40603;48.774;8.916;2024-03-29T09:22:40;4.68;;;1.77;;
54705;SDS011;40603;48.774;8.916;2024-03-29T09:25:06;1.77;;;1.17;;
54705;SDS011;40603;48.774;8.916;2024-03-29T09:27:34;3.50;;;1.15;;
54705;SDS011;40603;48.774;8.916;2024-03-29T09:30:01;2.67;;;1.23;;
54705;SDS011;40603;48.774;8.916;2024-03-29T09:32:26;4.45;;;1.70;;
54705;SDS011;40603;48.774;8.916;2024-03-29T09:34:52;1.95;;;1.08;;
54705;SDS011;40603;48.774;8.916;2024-03-29T09:37:17;4.30;;;1.10;;
54705;SDS011;40603;48.774;8.916;2024-03-29T09:39:45;1.58;;;0.80;;
54705;SDS011;40603;48.774;8.916;2024-03-29T09:42:12;1.60;;;0.90;;
54705;SDS011;40603;48.774;8.916;2024-03-29T09:44:40;2.00;;;0.87;;
54705;SDS011;40603;48.774;8.916;2024-03-29T09:47:08;1.67;;;0.63;;
54705;SDS011;40603;48.774;8.916;2024-03-29T09:49:36;1.92;;;0.80;;
54705;SDS011;40603;48.774;8.916;2024-03-29T09:52:01;3.88;;;0.98;;
54705;SDS011;40603;48.774;8.916;2024-03-29T09:54:29;1.77;;;0.85;;
54705;SDS011;40603;48.774;8.916;2024-03-29T09:56:55;7.97;;;2.33;;
54705;SDS011;40603;48.774;8.916;2024-03-29T09:59:22;7.45;;;2.10;;
54705;SDS011;40603;48.774;8.916;2024-03-29T10:01:48;4.07;;;2.00;;
54705;SDS011;40603;48.774;8.916;2024-03-29T10:04:15;2.60;;;1.40;;
54705;SDS011;40603;48.774;8.916;2024-03-29T10:06:41;2.05;;;1.40;;
54705;SDS011;40603;48.774;8.916;2024-03-29T10:09:08;4.05;;;2.10;;
54705;SDS011;40603;48.774;8.916;2024-03-29T10:11:35;5.93;;;2.28;;
54705;SDS011;40603;48.774;8.916;2024-03-29T10:14:01;4.05;;;1.52;;
54705;SDS011;40603;48.774;8.916;2024-03-29T10:16:26;4.63;;;1.70;;
54705;SDS011;40603;48.774;8.916;2024-03-29T10:18:55;2.60;;;1.67;;
54705;SDS011;40603;48.774;8.916;2024-03-29T10:21:26;5.80;;;1.85;;
54705;SDS011;40603;48.774;8.916;2024-03-29T10:23:51;3.78;;;1.77;;
54705;SDS011;40603;48.774;8.916;2024-03-29T10:26:17;3.63;;;1.80;;
54705;SDS011;40603;48.774;8.916;2024-03-29T10:28:43;2.45;;;1.58;;
54705;SDS011;40603;48.774;8.916;2024-03-29T10:31:08;2.08;;;1.23;;
54705;SDS011;40603;48.774;8.916;2024-03-29T10:33:33;3.75;;;1.00;;
54705;SDS011;40603;48.774;8.916;2024-03-29T10:35:59;1.38;;;1.13;;
54705;SDS011;40603;48.774;8.916;2024-03-29T10:38:26;2.60;;;1.23;;
54705;SDS011;40603;48.774;8.916;2024-03-29T10:40:52;3.42;;;1.30;;
54705;SDS011;40603;48.774;8.916;2024-03-29T10:43:17;3.05;;;1.08;;
54705;SDS011;40603;48.774;8.916;2024-03-29T10:45:44;2.42;;;1.20;;
54705;SDS011;40603;48.774;8.916;2024-03-29T10:48:10;4.93;;;1.52;;
54705;SDS011;40603;48.774;8.916;2024-03-29T10:50:35;2.00;;;1.35;;
54705;SDS011;40603;48.774;8.916;2024-03-29T10:53:01;1.88;;;1.13;;
54705;SDS011;40603;48.774;8.916;2024-03-29T10:55:28;1.05;;;1.00;;
54705;SDS011;40603;48.774;8.916;2024-03-29T10:57:55;1.45;;;1.00;;
54705;SDS011;40603;48.774;8.916;2024-03-29T11:00:23;2.38;;;1.40;;
54705;SDS011;40603;48.774;8.916;2024-03-29T11:02:50;4.03;;;1.52;;
54705;SDS011;40603;48.774;8.916;2024-03-29T11:05:21;4.70;;;2.13;;
54705;SDS011;40603;48.774;8.916;2024-03-29T11:07:46;3.25;;;2.17;;
54705;SDS011;40603;48.774;8.916;2024-03-29T11:10:17;2.33;;;1.33;;
54705;SDS011;40603;48.774;8.916;2024-03-29T11:12:59;2.47;;;1.10;;
54705;SDS011;40603;48.774;8.916;2024-03-29T11:15:29;1.98;;;1.13;;
54705;SDS011;40603;48.774;8.916;2024-03-29T11:17:55;2.05;;;1.50;;
54705;SDS011;40603;48.774;8.916;2024-03-29T11:20:23;2.40;;;1.27;;
54705;SDS011;40603;48.774;8.916;2024-03-29T11:22:55;2.30;;;1.50;;
54705;SDS011;40603;48.774;8.916;2024-03-29T11:25:20;5.95;;;1.25;;
54705;SDS011;40603;48.774;8.916;2024-03-29T11:27:46;3.10;;;1.60;;
54705;SDS011;40603;48.774;8.916;2024-03-29T11:30:16;2.22;;;1.02;;
54705;SDS011;40603;48.774;8.916;2024-03-29T11:32:42;1.10;;;1.00;;
54705;SDS011;40603;48.774;8.916;2024-03-29T11:35:13;2.08;;;1.30;;
54705;SDS011;40603;48.774;8.916;2024-03-29T11:37:39;1.17;;;1.08;;
54705;SDS011;40603;48.774;8.916;2024-03-29T11:40:05;2.72;;;1.10;;
54705;SDS011;40603;48.774;8.916;2024-03-29T11:42:36;4.32;;;1.20;;
54705;SDS011;40603;48.774;8.916;2024-03-29T11:45:11;1.30;;;1.13;;
54705;SDS011;40603;48.774;8.916;2024-03-29T11:47:38;3.28;;;1.00;;
54705;SDS011;40603;48.774;8.916;2024-03-29T11:50:04;0.98;;;0.82;;
54705;SDS011;40603;48.774;8.916;2024-03-29T11:52:30;3.15;;;1.00;;
54705;SDS011;40603;48.774;8.916;2024-03-29T11:54:56;4.90;;;1.02;;
54705;SDS011;40603;48.774;8.916;2024-03-29T11:57:21;1.38;;;0.98;;
54705;SDS011;40603;48.774;8.916;2024-03-29T11:59:47;5.50;;;1.02;;
54705;SDS011;40603;48.774;8.916;2024-03-29T12:02:13;2.90;;;0.75;;
54705;SDS011;40603;48.774;8.916;2024-03-29T12:04:40;2.75;;;1.10;;
54705;SDS011;40603;48.774;8.916;2024-03-29T12:07:06;1.60;;;0.80;;
54705;SDS011;40603;48.774;8.916;2024-03-29T12:09:31;2.75;;;0.50;;
54705;SDS011;40603;48.774;8.916;2024-03-29T12:11:56;3.08;;;0.60;;
54705;SDS011;40603;48.774;8.916;2024-03-29T12:14:24;0.93;;;0.75;;
54705;SDS011;40603;48.774;8.916;2024-03-29T12:16:52;0.98;;;0.57;;
54705;SDS011;40603;48.774;8.916;2024-03-29T12:19:22;0.70;;;0.50;;
54705;SDS011;40603;48.774;8.916;2024-03-29T12:21:48;2.03;;;0.70;;
54705;SDS011;40603;48.774;8.916;2024-03-29T12:24:15;0.80;;;0.73;;
54705;SDS011;40603;48.774;8.916;2024-03-29T12:26:41;1.80;;;0.82;;
54705;SDS011;40603;48.774;8.916;2024-03-29T12:29:06;1.95;;;0.95;;
54705;SDS011;40603;48.774;8.916;2024-03-29T12:31:32;0.50;;;0.50;;
54705;SDS011;40603;48.774;8.916;2024-03-29T12:33:57;2.95;;;0.80;;
54705;SDS011;40603;48.774;8.916;2024-03-29T12:36:24;2.35;;;0.95;;
54705;SDS011;40603;48.774;8.916;2024-03-29T12:38:53;0.90;;;0.80;;
54705;SDS011;40603;48.774;8.916;2024-03-29T12:41:22;0.65;;;0.60;;
54705;SDS011;40603;48.774;8.916;2024-03-29T12:43:49;1.02;;;0.90;;
54705;SDS011;40603;48.774;8.916;2024-03-29T12:46:15;1.25;;;0.80;;
54705;SDS011;40603;48.774;8.916;2024-03-29T12:48:40;1.45;;;0.73;;
54705;SDS011;40603;48.774;8.916;2024-03-29T12:51:06;3.53;;;0.77;;
54705;SDS011;40603;48.774;8.916;2024-03-29T12:53:32;2.03;;;0.70;;
54705;SDS011;40603;48.774;8.916;2024-03-29T12:55:58;2.53;;;0.90;;
54705;SDS011;40603;48.774;8.916;2024-03-29T12:58:24;1.52;;;1.00;;
54705;SDS011;40603;48.774;8.916;2024-03-29T13:00:49;1.70;;;1.00;;
54705;SDS011;40603;48.774;8.916;2024-03-29T13:03:15;1.35;;;0.80;;
54705;SDS011;40603;48.774;8.916;2024-03-29T13:05:41;1.60;;;0.90;;
54705;SDS011;40603;48.774;8.916;2024-03-29T13:08:07;1.95;;;1.05;;
54705;SDS011;40603;48.774;8.916;2024-03-29T13:10:35;1.63;;;0.70;;
54705;SDS011;40603;48.774;8.916;2024-03-29T13:13:01;1.40;;;0.75;;
54705;SDS011;40603;48.774;8.916;2024-03-29T13:15:26;0.80;;;0.63;;
54705;SDS011;40603;48.774;8.916;2024-03-29T13:17:52;0.63;;;0.63;;
54705;SDS011;40603;48.774;8.916;2024-03-29T13:20:18;0.75;;;0.75;;
54705;SDS011;40603;48.774;8.916;2024-03-29T13:22:44;1.92;;;0.70;;
54705;SDS011;40603;48.774;8.916;2024-03-29T13:25:17;1.95;;;0.80;;
54705;SDS011;40603;48.774;8.916;2024-03-29T13:27:49;0.82;;;0.70;;
54705;SDS011;40603;48.774;8.916;2024-03-29T13:30:20;1.20;;;0.88;;
54705;SDS011;40603;48.774;8.916;2024-03-29T13:32:46;4.10;;;1.02;;
54705;SDS011;40603;48.774;8.916;2024-03-29T13:35:11;2.50;;;1.20;;
54705;SDS011;40603;48.774;8.916;2024-03-29T13:37:40;1.35;;;1.20;;
54705;SDS011;40603;48.774;8.916;2024-03-29T13:40:09;1.40;;;0.90;;
54705;SDS011;40603;48.774;8.916;2024-03-29T13:42:35;3.75;;;1.70;;
54705;SDS011;40603;48.774;8.916;2024-03-29T13:45:01;3.10;;;1.40;;
54705;SDS011;40603;48.774;8.916;2024-03-29T13:47:27;1.45;;;0.85;;
54705;SDS011;40603;48.774;8.916;2024-03-29T13:49:52;1.17;;;0.60;;
54705;SDS011;40603;48.774;8.916;2024-03-29T13:52:19;1.25;;;1.15;;
54705;SDS011;40603;48.774;8.916;2024-03-29T13:54:45;1.77;;;0.95;;
54705;SDS011;40603;48.774;8.916;2024-03-29T13:57:13;2.28;;;1.20;;
54705;SDS011;40603;48.774;8.916;2024-03-29T13:59:39;4.22;;;1.30;;
54705;SDS011;40603;48.774;8.916;2024-03-29T14:02:07;1.85;;;1.15;;
54705;SDS011;40603;48.774;8.916;2024-03-29T14:04:32;3.60;;;1.25;;
54705;SDS011;40603;48.774;8.916;2024-03-29T14:06:58;3.80;;;1.50;;
54705;SDS011;40603;48.774;8.916;2024-03-29T14:09:23;2.25;;;1.10;;
54705;SDS011;40603;48.774;8.916;2024-03-29T14:11:49;3.13;;;1.05;;
54705;SDS011;40603;48.774;8.916;2024-03-29T14:14:15;0.88;;;0.85;;
54705;SDS011;40603;48.774;8.916;2024-03-29T14:16:41;2.30;;;1.13;;
54705;SDS011;40603;48.774;8.916;2024-03-29T14:19:06;1.90;;;1.08;;
54705;SDS011;40603;48.774;8.916;2024-03-29T14:21:31;3.45;;;0.98;;
54705;SDS011;40603;48.774;8.916;2024-03-29T14:23:57;3.20;;;1.20;;
54705;SDS011;40603;48.774;8.916;2024-03-29T14:26:22;0.95;;;0.80;;
54705;SDS011;40603;48.774;8.916;2024-03-29T14:28:48;2.20;;;1.02;;
54705;SDS011;40603;48.774;8.916;2024-03-29T14:31:13;1.35;;;0.70;;
54705;SDS011;40603;48.774;8.916;2024-03-29T14:33:38;1.05;;;0.95;;
54705;SDS011;40603;48.774;8.916;2024-03-29T14:36:04;2.38;;;0.90;;
54705;SDS011;40603;48.774;8.916;2024-03-29T14:38:29;1.85;;;1.20;;
54705;SDS011;40603;48.774;8.916;2024-03-29T14:40:55;1.55;;;1.00;;
54705;SDS011;40603;48.774;8.916;2024-03-29T14:43:20;0.98;;;0.65;;